sensor_id;sensor_type;location;lat;lon;timestamp;P1;durP1;ratioP1;P2;durP2;ratioP2
2622;SDS011;1321;48.690;9.022;2023-07-13T00:01:13;10.80;;;10.50;;
2622;SDS011;1321;48.690;9.022;2023-07-13T00:03:41;11.43;;;11.13;;
2622;SDS011;1321;48.690;9.022;2023-07-13T00:06:11;10.70;;;10.50;;
2622;SDS011;1321;48.690;9.022;2023-07-13T00:08:39;11.20;;;10.80;;
2622;SDS011;1321;48.690;9.022;2023-07-13T00:11:08;11.33;;;10.87;;
2622;SDS011;1321;48.690;9.022;2023-07-13T00:13:37;11.00;;;10.60;;
2622;SDS011;1321;48.690;9.022;2023-07-13T00:16:05;11.53;;;11.00;;
2622;SDS011;1321;48.690;9.022;2023-07-13T00:18:36;11.00;;;10.70;;
2622;SDS011;1321;48.690;9.022;2023-07-13T00:21:05;11.20;;;10.83;;
2622;SDS011;1321;48.690;9.022;2023-07-13T00:23:35;11.27;;;10.87;;
2622;SDS011;1321;48.690;9.022;2023-07-13T00:26:06;11.17;;;10.90;;
2622;SDS011;1321;48.690;9.022;2023-07-13T00:28:36;10.80;;;10.50;;
2622;SDS011;1321;48.690;9.022;2023-07-13T00:31:07;11.23;;;10.80;;
2622;SDS011;1321;48.690;9.022;2023-07-13T00:33:36;11.63;;;11.20;;
2622;SDS011;1321;48.690;9.022;2023-07-13T00:36:05;11.13;;;10.50;;
2622;SDS011;1321;48.690;9.022;2023-07-13T00:38:35;11.10;;;10.70;;
2622;SDS011;1321;48.690;9.022;2023-07-13T00:41:03;10.30;;;10.00;;
2622;SDS011;1321;48.690;9.022;2023-07-13T00:43:32;11.53;;;11.13;;
2622;SDS011;1321;48.690;9.022;2023-07-13T00:46:20;9.90;;;9.70;;
2622;SDS011;1321;48.690;9.022;2023-07-13T00:48:53;10.63;;;10.43;;
2622;SDS011;1321;48.690;9.022;2023-07-13T00:51:26;10.00;;;9.70;;
2622;SDS011;1321;48.690;9.022;2023-07-13T00:53:58;10.03;;;9.83;;
2622;SDS011;1321;48.690;9.022;2023-07-13T00:56:30;10.97;;;10.30;;
2622;SDS011;1321;48.690;9.022;2023-07-13T00:59:00;10.83;;;10.33;;
2622;SDS011;1321;48.690;9.022;2023-07-13T01:01:31;10.73;;;10.23;;
2622;SDS011;1321;48.690;9.022;2023-07-13T01:04:00;10.80;;;10.50;;
2622;SDS011;1321;48.690;9.022;2023-07-13T01:06:28;11.40;;;10.90;;
2622;SDS011;1321;48.690;9.022;2023-07-13T01:08:58;10.80;;;10.40;;
2622;SDS011;1321;48.690;9.022;2023-07-13T01:11:26;11.00;;;10.70;;
2622;SDS011;1321;48.690;9.022;2023-07-13T01:13:55;11.20;;;10.50;;
2622;SDS011;1321;48.690;9.022;2023-07-13T01:16:24;10.00;;;9.80;;
2622;SDS011;1321;48.690;9.022;2023-07-13T01:18:54;10.30;;;10.10;;
2622;SDS011;1321;48.690;9.022;2023-07-13T01:21:25;10.27;;;9.97;;
2622;SDS011;1321;48.690;9.022;2023-07-13T01:23:55;10.23;;;10.03;;
2622;SDS011;1321;48.690;9.022;2023-07-13T01:26:23;10.53;;;10.13;;
2622;SDS011;1321;48.690;9.022;2023-07-13T01:28:51;10.57;;;10.27;;
2622;SDS011;1321;48.690;9.022;2023-07-13T01:31:19;10.90;;;10.60;;
2622;SDS011;1321;48.690;9.022;2023-07-13T01:33:47;10.17;;;9.97;;
2622;SDS011;1321;48.690;9.022;2023-07-13T01:36:15;10.87;;;10.47;;
2622;SDS011;1321;48.690;9.022;2023-07-13T01:38:44;10.57;;;10.27;;
2622;SDS011;1321;48.690;9.022;2023-07-13T01:41:12;10.60;;;10.40;;
2622;SDS011;1321;48.690;9.022;2023-07-13T01:43:40;10.20;;;10.00;;
2622;SDS011;1321;48.690;9.022;2023-07-13T01:46:09;10.77;;;10.33;;
2622;SDS011;1321;48.690;9.022;2023-07-13T01:48:49;10.70;;;10.20;;
2622;SDS011;1321;48.690;9.022;2023-07-13T01:51:17;10.83;;;10.60;;
2622;SDS011;1321;48.690;9.022;2023-07-13T01:53:48;11.00;;;10.60;;
2622;SDS011;1321;48.690;9.022;2023-07-13T01:56:17;10.57;;;10.37;;
2622;SDS011;1321;48.690;9.022;2023-07-13T01:58:45;11.13;;;10.70;;
2622;SDS011;1321;48.690;9.022;2023-07-13T02:01:13;11.10;;;10.50;;
2622;SDS011;1321;48.690;9.022;2023-07-13T02:03:41;10.53;;;10.23;;
2622;SDS011;1321;48.690;9.022;2023-07-13T02:06:10;11.10;;;10.70;;
2622;SDS011;1321;48.690;9.022;2023-07-13T02:08:39;10.50;;;10.30;;
2622;SDS011;1321;48.690;9.022;2023-07-13T02:11:09;10.50;;;10.30;;
2622;SDS011;1321;48.690;9.022;2023-07-13T02:13:37;10.70;;;10.37;;
2622;SDS011;1321;48.690;9.022;2023-07-13T02:16:05;11.23;;;10.77;;
2622;SDS011;1321;48.690;9.022;2023-07-13T02:18:34;10.73;;;10.23;;
2622;SDS011;1321;48.690;9.022;2023-07-13T02:21:02;10.53;;;10.23;;
2622;SDS011;1321;48.690;9.022;2023-07-13T02:23:30;10.67;;;10.30;;
2622;SDS011;1321;48.690;9.022;2023-07-13T02:25:59;10.43;;;10.00;;
2622;SDS011;1321;48.690;9.022;2023-07-13T02:28:30;10.87;;;10.47;;
2622;SDS011;1321;48.690;9.022;2023-07-13T02:31:03;10.30;;;10.00;;
2622;SDS011;1321;48.690;9.022;2023-07-13T02:33:32;10.63;;;10.20;;
2622;SDS011;1321;48.690;9.022;2023-07-13T02:36:00;10.23;;;9.93;;
2622;SDS011;1321;48.690;9.022;2023-07-13T02:38:29;9.93;;;9.63;;
2622;SDS011;1321;48.690;9.022;2023-07-13T02:40:59;10.60;;;10.17;;
2622;SDS011;1321;48.690;9.022;2023-07-13T02:43:29;10.40;;;10.20;;
2622;SDS011;1321;48.690;9.022;2023-07-13T02:45:58;10.23;;;9.90;;
2622;SDS011;1321;48.690;9.022;2023-07-13T02:48:30;10.33;;;10.03;;
2622;SDS011;1321;48.690;9.022;2023-07-13T02:50:58;10.10;;;9.80;;
2622;SDS011;1321;48.690;9.022;2023-07-13T02:53:26;10.70;;;10.30;;
2622;SDS011;1321;48.690;9.022;2023-07-13T02:55:54;11.10;;;10.60;;
2622;SDS011;1321;48.690;9.022;2023-07-13T02:58:22;10.90;;;10.60;;
2622;SDS011;1321;48.690;9.022;2023-07-13T03:00:52;10.87;;;10.40;;
2622;SDS011;1321;48.690;9.022;2023-07-13T03:03:20;10.50;;;10.20;;
2622;SDS011;1321;48.690;9.022;2023-07-13T03:05:57;11.33;;;10.83;;
2622;SDS011;1321;48.690;9.022;2023-07-13T03:08:26;10.47;;;10.27;;
2622;SDS011;1321;48.690;9.022;2023-07-13T03:10:58;10.40;;;10.20;;
2622;SDS011;1321;48.690;9.022;2023-07-13T03:13:27;10.70;;;10.40;;
2622;SDS011;1321;48.690;9.022;2023-07-13T03:15:57;11.20;;;10.90;;
2622;SDS011;1321;48.690;9.022;2023-07-13T03:18:26;11.07;;;10.57;;
2622;SDS011;1321;48.690;9.022;2023-07-13T03:20:55;10.93;;;10.70;;
2622;SDS011;1321;48.690;9.022;2023-07-13T03:23:23;11.40;;;10.70;;
2622;SDS011;1321;48.690;9.022;2023-07-13T03:26:00;10.60;;;10.30;;
2622;SDS011;1321;48.690;9.022;2023-07-13T03:28:29;10.90;;;10.60;;
2622;SDS011;1321;48.690;9.022;2023-07-13T03:31:02;11.17;;;10.77;;
2622;SDS011;1321;48.690;9.022;2023-07-13T03:33:32;10.63;;;10.33;;
2622;SDS011;1321;48.690;9.022;2023-07-13T03:36:00;11.00;;;10.60;;
2622;SDS011;1321;48.690;9.022;2023-07-13T03:38:29;11.00;;;10.50;;
2622;SDS011;1321;48.690;9.022;2023-07-13T03:40:57;11.83;;;11.23;;
2622;SDS011;1321;48.690;9.022;2023-07-13T03:43:25;11.07;;;10.77;;
2622;SDS011;1321;48.690;9.022;2023-07-13T03:45:54;12.10;;;11.27;;
2622;SDS011;1321;48.690;9.022;2023-07-13T03:48:24;10.93;;;10.50;;
2622;SDS011;1321;48.690;9.022;2023-07-13T03:50:52;11.20;;;10.70;;
2622;SDS011;1321;48.690;9.022;2023-07-13T03:53:20;10.80;;;10.50;;
2622;SDS011;1321;48.690;9.022;2023-07-13T03:55:48;11.40;;;11.00;;
2622;SDS011;1321;48.690;9.022;2023-07-13T03:58:27;11.27;;;10.87;;
2622;SDS011;1321;48.690;9.022;2023-07-13T04:01:00;11.07;;;10.70;;
2622;SDS011;1321;48.690;9.022;2023-07-13T04:03:30;11.27;;;10.87;;
2622;SDS011;1321;48.690;9.022;2023-07-13T04:05:59;10.90;;;10.60;;
2622;SDS011;1321;48.690;9.022;2023-07-13T04:08:28;10.80;;;10.50;;
2622;SDS011;1321;48.690;9.022;2023-07-13T04:10:58;11.50;;;11.10;;
2622;SDS011;1321;48.690;9.022;2023-07-13T04:13:26;11.23;;;10.80;;
2622;SDS011;1321;48.690;9.022;2023-07-13T04:15:55;11.97;;;11.37;;
2622;SDS011;1321;48.690;9.022;2023-07-13T04:18:23;11.27;;;10.97;;
2622;SDS011;1321;48.690;9.022;2023-07-13T04:20:52;10.97;;;10.67;;
2622;SDS011;1321;48.690;9.022;2023-07-13T04:23:21;11.13;;;10.73;;
2622;SDS011;1321;48.690;9.022;2023-07-13T04:25:49;11.63;;;10.93;;
2622;SDS011;1321;48.690;9.022;2023-07-13T04:28:20;11.77;;;11.07;;
2622;SDS011;1321;48.690;9.022;2023-07-13T04:30:49;11.27;;;10.87;;
2622;SDS011;1321;48.690;9.022;2023-07-13T04:33:17;11.57;;;11.20;;
2622;SDS011;1321;48.690;9.022;2023-07-13T04:35:49;12.13;;;11.63;;
2622;SDS011;1321;48.690;9.022;2023-07-13T04:38:24;11.50;;;11.00;;
2622;SDS011;1321;48.690;9.022;2023-07-13T04:40:54;11.90;;;11.50;;
2622;SDS011;1321;48.690;9.022;2023-07-13T04:43:23;12.00;;;11.23;;
2622;SDS011;1321;48.690;9.022;2023-07-13T04:45:52;10.90;;;10.60;;
2622;SDS011;1321;48.690;9.022;2023-07-13T04:48:21;12.27;;;11.67;;
2622;SDS011;1321;48.690;9.022;2023-07-13T04:50:54;11.63;;;11.33;;
2622;SDS011;1321;48.690;9.022;2023-07-13T04:53:24;11.27;;;10.97;;
2622;SDS011;1321;48.690;9.022;2023-07-13T04:55:53;11.30;;;11.00;;
2622;SDS011;1321;48.690;9.022;2023-07-13T04:58:21;11.77;;;11.37;;
2622;SDS011;1321;48.690;9.022;2023-07-13T05:00:50;11.17;;;10.77;;
2622;SDS011;1321;48.690;9.022;2023-07-13T05:03:21;12.17;;;11.57;;
2622;SDS011;1321;48.690;9.022;2023-07-13T05:05:56;12.70;;;12.20;;
2622;SDS011;1321;48.690;9.022;2023-07-13T05:08:27;12.47;;;12.00;;
2622;SDS011;1321;48.690;9.022;2023-07-13T05:10:59;11.83;;;11.33;;
2622;SDS011;1321;48.690;9.022;2023-07-13T05:13:34;11.83;;;11.50;;
2622;SDS011;1321;48.690;9.022;2023-07-13T05:16:26;11.77;;;11.37;;
2622;SDS011;1321;48.690;9.022;2023-07-13T05:19:27;12.10;;;11.60;;
2622;SDS011;1321;48.690;9.022;2023-07-13T05:22:44;12.23;;;11.77;;
2622;SDS011;1321;48.690;9.022;2023-07-13T05:25:15;12.60;;;12.20;;
2622;SDS011;1321;48.690;9.022;2023-07-13T05:27:44;12.63;;;12.30;;
2622;SDS011;1321;48.690;9.022;2023-07-13T05:30:13;13.83;;;13.23;;
2622;SDS011;1321;48.690;9.022;2023-07-13T05:32:41;13.50;;;12.90;;
2622;SDS011;1321;48.690;9.022;2023-07-13T05:35:10;13.40;;;12.67;;
2622;SDS011;1321;48.690;9.022;2023-07-13T05:37:38;12.73;;;12.33;;
2622;SDS011;1321;48.690;9.022;2023-07-13T05:40:09;12.73;;;12.33;;
2622;SDS011;1321;48.690;9.022;2023-07-13T05:42:39;12.70;;;12.10;;
2622;SDS011;1321;48.690;9.022;2023-07-13T05:45:08;13.03;;;12.50;;
2622;SDS011;1321;48.690;9.022;2023-07-13T05:47:36;12.50;;;12.00;;
2622;SDS011;1321;48.690;9.022;2023-07-13T05:50:05;12.70;;;12.20;;
2622;SDS011;1321;48.690;9.022;2023-07-13T05:52:34;12.73;;;12.00;;
2622;SDS011;1321;48.690;9.022;2023-07-13T05:55:06;13.17;;;12.43;;
2622;SDS011;1321;48.690;9.022;2023-07-13T05:57:34;12.37;;;11.97;;
2622;SDS011;1321;48.690;9.022;2023-07-13T06:00:04;12.20;;;11.50;;
2622;SDS011;1321;48.690;9.022;2023-07-13T06:02:34;12.10;;;11.60;;
2622;SDS011;1321;48.690;9.022;2023-07-13T06:05:03;12.50;;;12.00;;
2622;SDS011;1321;48.690;9.022;2023-07-13T06:07:31;12.60;;;12.20;;
2622;SDS011;1321;48.690;9.022;2023-07-13T06:09:59;12.73;;;12.37;;
2622;SDS011;1321;48.690;9.022;2023-07-13T06:12:27;12.60;;;12.00;;
2622;SDS011;1321;48.690;9.022;2023-07-13T06:14:56;13.20;;;12.27;;
2622;SDS011;1321;48.690;9.022;2023-07-13T06:17:26;12.27;;;11.87;;
2622;SDS011;1321;48.690;9.022;2023-07-13T06:19:57;13.07;;;12.40;;
2622;SDS011;1321;48.690;9.022;2023-07-13T06:22:25;12.07;;;11.77;;
2622;SDS011;1321;48.690;9.022;2023-07-13T06:24:53;12.33;;;11.87;;
2622;SDS011;1321;48.690;9.022;2023-07-13T06:27:21;12.77;;;12.30;;
2622;SDS011;1321;48.690;9.022;2023-07-13T06:29:50;12.73;;;12.33;;
2622;SDS011;1321;48.690;9.022;2023-07-13T06:32:18;12.37;;;11.80;;
2622;SDS011;1321;48.690;9.022;2023-07-13T06:34:50;13.00;;;12.30;;
2622;SDS011;1321;48.690;9.022;2023-07-13T06:37:19;12.50;;;12.00;;
2622;SDS011;1321;48.690;9.022;2023-07-13T06:39:47;12.30;;;11.90;;
2622;SDS011;1321;48.690;9.022;2023-07-13T06:42:15;12.20;;;11.70;;
2622;SDS011;1321;48.690;9.022;2023-07-13T06:44:44;12.40;;;11.80;;
2622;SDS011;1321;48.690;9.022;2023-07-13T06:47:12;12.60;;;12.20;;
2622;SDS011;1321;48.690;9.022;2023-07-13T06:49:40;12.93;;;12.30;;
2622;SDS011;1321;48.690;9.022;2023-07-13T06:52:09;12.53;;;12.03;;
2622;SDS011;1321;48.690;9.022;2023-07-13T06:54:38;12.23;;;11.73;;
2622;SDS011;1321;48.690;9.022;2023-07-13T06:57:06;12.23;;;11.73;;
2622;SDS011;1321;48.690;9.022;2023-07-13T06:59:34;11.93;;;11.53;;
2622;SDS011;1321;48.690;9.022;2023-07-13T07:02:03;12.10;;;11.50;;
2622;SDS011;1321;48.690;9.022;2023-07-13T07:04:32;11.37;;;11.07;;
2622;SDS011;1321;48.690;9.022;2023-07-13T07:07:00;11.60;;;11.10;;
2622;SDS011;1321;48.690;9.022;2023-07-13T07:09:32;11.63;;;11.13;;
2622;SDS011;1321;48.690;9.022;2023-07-13T07:12:00;11.27;;;10.87;;
2622;SDS011;1321;48.690;9.022;2023-07-13T07:14:30;11.27;;;10.67;;
2622;SDS011;1321;48.690;9.022;2023-07-13T07:17:00;10.60;;;10.33;;
2622;SDS011;1321;48.690;9.022;2023-07-13T07:19:29;10.87;;;10.47;;
2622;SDS011;1321;48.690;9.022;2023-07-13T07:21:58;11.53;;;10.70;;
2622;SDS011;1321;48.690;9.022;2023-07-13T07:24:26;10.30;;;10.10;;
2622;SDS011;1321;48.690;9.022;2023-07-13T07:26:59;10.27;;;9.87;;
2622;SDS011;1321;48.690;9.022;2023-07-13T07:29:30;9.90;;;9.50;;
2622;SDS011;1321;48.690;9.022;2023-07-13T07:32:01;10.43;;;10.03;;
2622;SDS011;1321;48.690;9.022;2023-07-13T07:34:50;10.30;;;9.50;;
2622;SDS011;1321;48.690;9.022;2023-07-13T07:37:18;10.83;;;10.33;;
2622;SDS011;1321;48.690;9.022;2023-07-13T07:39:49;10.10;;;9.70;;
2622;SDS011;1321;48.690;9.022;2023-07-13T07:42:38;10.57;;;10.17;;
2622;SDS011;1321;48.690;9.022;2023-07-13T07:45:07;10.60;;;10.30;;
2622;SDS011;1321;48.690;9.022;2023-07-13T07:47:37;10.53;;;10.03;;
2622;SDS011;1321;48.690;9.022;2023-07-13T07:50:06;10.93;;;10.17;;
2622;SDS011;1321;48.690;9.022;2023-07-13T07:52:35;10.50;;;10.00;;
2622;SDS011;1321;48.690;9.022;2023-07-13T07:55:04;10.57;;;9.90;;
2622;SDS011;1321;48.690;9.022;2023-07-13T07:57:36;9.50;;;9.20;;
2622;SDS011;1321;48.690;9.022;2023-07-13T08:00:09;9.90;;;9.50;;
2622;SDS011;1321;48.690;9.022;2023-07-13T08:02:41;9.30;;;8.83;;
2622;SDS011;1321;48.690;9.022;2023-07-13T08:05:14;9.83;;;9.33;;
2622;SDS011;1321;48.690;9.022;2023-07-13T08:07:45;10.03;;;9.57;;
2622;SDS011;1321;48.690;9.022;2023-07-13T08:10:13;9.47;;;9.17;;
2622;SDS011;1321;48.690;9.022;2023-07-13T08:12:43;9.30;;;8.90;;
2622;SDS011;1321;48.690;9.022;2023-07-13T08:15:31;9.10;;;8.87;;
2622;SDS011;1321;48.690;9.022;2023-07-13T08:17:59;9.57;;;9.17;;
2622;SDS011;1321;48.690;9.022;2023-07-13T08:20:27;9.87;;;9.43;;
2622;SDS011;1321;48.690;9.022;2023-07-13T08:22:56;9.20;;;9.00;;
2622;SDS011;1321;48.690;9.022;2023-07-13T08:25:24;10.07;;;9.57;;
2622;SDS011;1321;48.690;9.022;2023-07-13T08:27:53;10.03;;;9.50;;
2622;SDS011;1321;48.690;9.022;2023-07-13T08:30:22;9.80;;;9.50;;
2622;SDS011;1321;48.690;9.022;2023-07-13T08:32:50;9.50;;;9.30;;
2622;SDS011;1321;48.690;9.022;2023-07-13T08:35:18;9.77;;;9.37;;
2622;SDS011;1321;48.690;9.022;2023-07-13T08:37:46;10.03;;;9.53;;
2622;SDS011;1321;48.690;9.022;2023-07-13T08:40:25;10.37;;;9.27;;
2622;SDS011;1321;48.690;9.022;2023-07-13T08:42:56;10.63;;;9.93;;
2622;SDS011;1321;48.690;9.022;2023-07-13T08:45:28;10.83;;;10.30;;
2622;SDS011;1321;48.690;9.022;2023-07-13T08:48:03;10.23;;;9.93;;
2622;SDS011;1321;48.690;9.022;2023-07-13T08:50:40;10.40;;;10.10;;
2622;SDS011;1321;48.690;9.022;2023-07-13T08:53:29;10.00;;;9.60;;
2622;SDS011;1321;48.690;9.022;2023-07-13T08:56:04;9.50;;;9.10;;
2622;SDS011;1321;48.690;9.022;2023-07-13T08:58:51;10.93;;;9.90;;
2622;SDS011;1321;48.690;9.022;2023-07-13T09:01:24;9.63;;;9.33;;
2622;SDS011;1321;48.690;9.022;2023-07-13T09:03:59;10.10;;;9.80;;
2622;SDS011;1321;48.690;9.022;2023-07-13T09:06:49;10.10;;;9.60;;
2622;SDS011;1321;48.690;9.022;2023-07-13T09:16:24;9.40;;;9.20;;
2622;SDS011;1321;48.690;9.022;2023-07-13T09:18:56;9.10;;;8.80;;
2622;SDS011;1321;48.690;9.022;2023-07-13T09:21:30;9.90;;;9.40;;
2622;SDS011;1321;48.690;9.022;2023-07-13T09:34:11;10.20;;;9.90;;
2622;SDS011;1321;48.690;9.022;2023-07-13T09:36:41;10.10;;;9.60;;
2622;SDS011;1321;48.690;9.022;2023-07-13T09:50:21;10.60;;;10.20;;
2622;SDS011;1321;48.690;9.022;2023-07-13T09:52:54;9.93;;;9.67;;
2622;SDS011;1321;48.690;9.022;2023-07-13T09:55:26;10.37;;;9.90;;
2622;SDS011;1321;48.690;9.022;2023-07-13T09:57:57;9.77;;;9.47;;
2622;SDS011;1321;48.690;9.022;2023-07-13T10:00:31;9.60;;;9.33;;
2622;SDS011;1321;48.690;9.022;2023-07-13T10:03:02;10.50;;;10.10;;
2622;SDS011;1321;48.690;9.022;2023-07-13T10:05:38;10.50;;;10.13;;
2622;SDS011;1321;48.690;9.022;2023-07-13T10:08:17;9.93;;;9.63;;
2622;SDS011;1321;48.690;9.022;2023-07-13T10:10:51;9.80;;;9.50;;
2622;SDS011;1321;48.690;9.022;2023-07-13T10:13:55;10.30;;;9.90;;
2622;SDS011;1321;48.690;9.022;2023-07-13T10:16:27;9.57;;;9.37;;
2622;SDS011;1321;48.690;9.022;2023-07-13T10:19:04;10.80;;;10.13;;
2622;SDS011;1321;48.690;9.022;2023-07-13T10:21:50;9.07;;;8.77;;
2622;SDS011;1321;48.690;9.022;2023-07-13T10:24:22;9.10;;;8.80;;
2622;SDS011;1321;48.690;9.022;2023-07-13T10:26:57;9.67;;;9.40;;
2622;SDS011;1321;48.690;9.022;2023-07-13T10:29:32;9.03;;;8.63;;
2622;SDS011;1321;48.690;9.022;2023-07-13T10:32:06;8.23;;;7.90;;
2622;SDS011;1321;48.690;9.022;2023-07-13T10:34:38;9.10;;;8.70;;
2622;SDS011;1321;48.690;9.022;2023-07-13T10:44:03;9.80;;;9.53;;
2622;SDS011;1321;48.690;9.022;2023-07-13T10:46:37;9.70;;;9.20;;
2622;SDS011;1321;48.690;9.022;2023-07-13T10:49:06;9.50;;;9.20;;
2622;SDS011;1321;48.690;9.022;2023-07-13T10:54:28;9.57;;;9.33;;
2622;SDS011;1321;48.690;9.022;2023-07-13T10:57:12;9.97;;;9.43;;
2622;SDS011;1321;48.690;9.022;2023-07-13T10:59:47;8.77;;;8.57;;
2622;SDS011;1321;48.690;9.022;2023-07-13T11:02:25;9.43;;;9.03;;
2622;SDS011;1321;48.690;9.022;2023-07-13T11:04:56;9.63;;;9.13;;
2622;SDS011;1321;48.690;9.022;2023-07-13T11:07:26;9.47;;;9.10;;
2622;SDS011;1321;48.690;9.022;2023-07-13T11:09:56;9.50;;;8.97;;
2622;SDS011;1321;48.690;9.022;2023-07-13T11:12:27;8.73;;;8.43;;
2622;SDS011;1321;48.690;9.022;2023-07-13T11:15:26;9.70;;;8.87;;
2622;SDS011;1321;48.690;9.022;2023-07-13T11:18:04;8.93;;;8.63;;
2622;SDS011;1321;48.690;9.022;2023-07-13T11:20:33;9.70;;;9.40;;
2622;SDS011;1321;48.690;9.022;2023-07-13T11:23:08;9.60;;;9.20;;
2622;SDS011;1321;48.690;9.022;2023-07-13T11:26:01;9.77;;;9.47;;
2622;SDS011;1321;48.690;9.022;2023-07-13T11:28:30;9.73;;;9.40;;
2622;SDS011;1321;48.690;9.022;2023-07-13T11:31:02;8.93;;;8.73;;
2622;SDS011;1321;48.690;9.022;2023-07-13T11:33:52;9.87;;;9.20;;
2622;SDS011;1321;48.690;9.022;2023-07-13T11:36:28;9.50;;;9.20;;
2622;SDS011;1321;48.690;9.022;2023-07-13T11:39:11;9.10;;;8.60;;
2622;SDS011;1321;48.690;9.022;2023-07-13T11:41:45;9.73;;;9.53;;
2622;SDS011;1321;48.690;9.022;2023-07-13T11:44:19;9.20;;;8.90;;
2622;SDS011;1321;48.690;9.022;2023-07-13T11:46:51;9.37;;;9.00;;
2622;SDS011;1321;48.690;9.022;2023-07-13T11:49:22;8.90;;;8.63;;
2622;SDS011;1321;48.690;9.022;2023-07-13T11:51:53;9.20;;;8.80;;
2622;SDS011;1321;48.690;9.022;2023-07-13T11:54:26;9.23;;;8.93;;
2622;SDS011;1321;48.690;9.022;2023-07-13T11:56:57;9.73;;;9.33;;
2622;SDS011;1321;48.690;9.022;2023-07-13T11:59:29;9.43;;;9.13;;
2622;SDS011;1321;48.690;9.022;2023-07-13T12:02:01;9.47;;;9.17;;
2622;SDS011;1321;48.690;9.022;2023-07-13T12:04:31;9.43;;;9.03;;
2622;SDS011;1321;48.690;9.022;2023-07-13T12:07:05;9.80;;;9.40;;
2622;SDS011;1321;48.690;9.022;2023-07-13T12:09:35;9.47;;;9.00;;
2622;SDS011;1321;48.690;9.022;2023-07-13T12:12:08;9.43;;;9.20;;
2622;SDS011;1321;48.690;9.022;2023-07-13T12:14:39;9.13;;;8.73;;
2622;SDS011;1321;48.690;9.022;2023-07-13T12:17:10;9.50;;;9.10;;
2622;SDS011;1321;48.690;9.022;2023-07-13T12:19:43;8.70;;;8.40;;
2622;SDS011;1321;48.690;9.022;2023-07-13T12:22:14;9.90;;;9.13;;
2622;SDS011;1321;48.690;9.022;2023-07-13T12:24:54;9.07;;;8.87;;
2622;SDS011;1321;48.690;9.022;2023-07-13T12:27:24;9.37;;;9.07;;
2622;SDS011;1321;48.690;9.022;2023-07-13T12:29:57;9.90;;;9.60;;
2622;SDS011;1321;48.690;9.022;2023-07-13T12:32:28;9.87;;;9.47;;
2622;SDS011;1321;48.690;9.022;2023-07-13T12:35:13;9.40;;;9.20;;
2622;SDS011;1321;48.690;9.022;2023-07-13T12:37:48;9.20;;;8.90;;
2622;SDS011;1321;48.690;9.022;2023-07-13T12:40:19;9.57;;;9.33;;
2622;SDS011;1321;48.690;9.022;2023-07-13T12:42:52;9.03;;;8.83;;
2622;SDS011;1321;48.690;9.022;2023-07-13T12:45:21;9.90;;;9.50;;
2622;SDS011;1321;48.690;9.022;2023-07-13T12:47:54;10.00;;;9.70;;
2622;SDS011;1321;48.690;9.022;2023-07-13T12:50:28;9.77;;;9.47;;
2622;SDS011;1321;48.690;9.022;2023-07-13T12:52:59;10.20;;;9.70;;
2622;SDS011;1321;48.690;9.022;2023-07-13T12:55:30;10.37;;;9.87;;
2622;SDS011;1321;48.690;9.022;2023-07-13T12:58:02;10.73;;;10.13;;
2622;SDS011;1321;48.690;9.022;2023-07-13T13:00:32;10.13;;;9.70;;
2622;SDS011;1321;48.690;9.022;2023-07-13T13:03:07;9.97;;;9.67;;
2622;SDS011;1321;48.690;9.022;2023-07-13T13:05:59;9.57;;;9.27;;
2622;SDS011;1321;48.690;9.022;2023-07-13T13:08:30;9.37;;;9.17;;
2622;SDS011;1321;48.690;9.022;2023-07-13T13:11:00;9.00;;;8.70;;
2622;SDS011;1321;48.690;9.022;2023-07-13T13:13:29;9.30;;;9.03;;
2622;SDS011;1321;48.690;9.022;2023-07-13T13:16:01;9.63;;;9.23;;
2622;SDS011;1321;48.690;9.022;2023-07-13T13:18:34;10.10;;;9.60;;
2622;SDS011;1321;48.690;9.022;2023-07-13T13:21:02;9.17;;;8.77;;
2622;SDS011;1321;48.690;9.022;2023-07-13T13:23:30;8.40;;;8.10;;
2622;SDS011;1321;48.690;9.022;2023-07-13T13:25:59;7.90;;;7.60;;
2622;SDS011;1321;48.690;9.022;2023-07-13T13:28:32;7.60;;;7.40;;
2622;SDS011;1321;48.690;9.022;2023-07-13T13:31:00;7.87;;;7.67;;
2622;SDS011;1321;48.690;9.022;2023-07-13T13:33:52;9.07;;;8.87;;
2622;SDS011;1321;48.690;9.022;2023-07-13T13:36:22;8.77;;;8.30;;
2622;SDS011;1321;48.690;9.022;2023-07-13T13:38:51;9.70;;;9.23;;
2622;SDS011;1321;48.690;9.022;2023-07-13T13:41:19;8.93;;;8.53;;
2622;SDS011;1321;48.690;9.022;2023-07-13T13:43:47;8.40;;;8.10;;
2622;SDS011;1321;48.690;9.022;2023-07-13T13:46:16;7.97;;;7.67;;
2622;SDS011;1321;48.690;9.022;2023-07-13T13:48:46;8.30;;;7.80;;
2622;SDS011;1321;48.690;9.022;2023-07-13T13:51:17;7.27;;;6.97;;
2622;SDS011;1321;48.690;9.022;2023-07-13T13:53:49;7.33;;;7.10;;
2622;SDS011;1321;48.690;9.022;2023-07-13T13:56:20;8.63;;;8.30;;
2622;SDS011;1321;48.690;9.022;2023-07-13T13:58:52;8.63;;;8.30;;
2622;SDS011;1321;48.690;9.022;2023-07-13T14:01:21;7.70;;;7.40;;
2622;SDS011;1321;48.690;9.022;2023-07-13T14:03:51;7.83;;;7.63;;
2622;SDS011;1321;48.690;9.022;2023-07-13T14:06:21;8.23;;;7.83;;
2622;SDS011;1321;48.690;9.022;2023-07-13T14:08:52;7.50;;;7.07;;
2622;SDS011;1321;48.690;9.022;2023-07-13T14:11:26;7.37;;;7.17;;
2622;SDS011;1321;48.690;9.022;2023-07-13T14:13:56;7.93;;;7.73;;
2622;SDS011;1321;48.690;9.022;2023-07-13T14:16:28;8.70;;;7.53;;
2622;SDS011;1321;48.690;9.022;2023-07-13T14:18:58;7.80;;;7.50;;
2622;SDS011;1321;48.690;9.022;2023-07-13T14:21:32;7.53;;;7.23;;
2622;SDS011;1321;48.690;9.022;2023-07-13T14:24:02;7.40;;;7.03;;
2622;SDS011;1321;48.690;9.022;2023-07-13T14:26:35;7.47;;;7.30;;
2622;SDS011;1321;48.690;9.022;2023-07-13T14:29:27;7.27;;;7.07;;
2622;SDS011;1321;48.690;9.022;2023-07-13T14:32:16;8.27;;;7.97;;
2622;SDS011;1321;48.690;9.022;2023-07-13T14:34:52;7.90;;;7.60;;
2622;SDS011;1321;48.690;9.022;2023-07-13T14:37:22;7.70;;;7.40;;
2622;SDS011;1321;48.690;9.022;2023-07-13T14:46:46;7.60;;;7.40;;
2622;SDS011;1321;48.690;9.022;2023-07-13T14:49:20;7.90;;;7.60;;
2622;SDS011;1321;48.690;9.022;2023-07-13T14:51:52;8.50;;;8.10;;
2622;SDS011;1321;48.690;9.022;2023-07-13T14:54:34;7.73;;;7.53;;
2622;SDS011;1321;48.690;9.022;2023-07-13T14:57:10;8.03;;;7.83;;
2622;SDS011;1321;48.690;9.022;2023-07-13T15:00:01;8.00;;;7.60;;
2622;SDS011;1321;48.690;9.022;2023-07-13T15:02:38;7.97;;;7.67;;
2622;SDS011;1321;48.690;9.022;2023-07-13T15:05:11;8.20;;;7.90;;
2622;SDS011;1321;48.690;9.022;2023-07-13T15:07:44;7.83;;;7.63;;
2622;SDS011;1321;48.690;9.022;2023-07-13T15:10:15;8.80;;;8.40;;
2622;SDS011;1321;48.690;9.022;2023-07-13T15:12:48;6.70;;;6.50;;
2622;SDS011;1321;48.690;9.022;2023-07-13T15:15:18;7.83;;;7.53;;
2622;SDS011;1321;48.690;9.022;2023-07-13T15:17:47;7.50;;;7.23;;
2622;SDS011;1321;48.690;9.022;2023-07-13T15:20:17;8.83;;;8.33;;
2622;SDS011;1321;48.690;9.022;2023-07-13T15:22:57;8.38;;;7.97;;
2622;SDS011;1321;48.690;9.022;2023-07-13T15:25:29;8.10;;;7.90;;
2622;SDS011;1321;48.690;9.022;2023-07-13T15:28:00;8.70;;;8.40;;
2622;SDS011;1321;48.690;9.022;2023-07-13T15:30:29;8.27;;;8.07;;
2622;SDS011;1321;48.690;9.022;2023-07-13T15:33:10;8.30;;;8.00;;
2622;SDS011;1321;48.690;9.022;2023-07-13T15:35:43;8.33;;;7.60;;
2622;SDS011;1321;48.690;9.022;2023-07-13T15:38:15;8.53;;;8.13;;
2622;SDS011;1321;48.690;9.022;2023-07-13T15:40:47;6.97;;;6.77;;
2622;SDS011;1321;48.690;9.022;2023-07-13T15:43:16;7.70;;;7.30;;
2622;SDS011;1321;48.690;9.022;2023-07-13T15:45:46;7.30;;;7.10;;
2622;SDS011;1321;48.690;9.022;2023-07-13T15:48:18;8.27;;;8.07;;
2622;SDS011;1321;48.690;9.022;2023-07-13T15:50:48;7.60;;;7.30;;
2622;SDS011;1321;48.690;9.022;2023-07-13T15:53:19;7.90;;;7.63;;
2622;SDS011;1321;48.690;9.022;2023-07-13T15:55:51;7.57;;;7.37;;
2622;SDS011;1321;48.690;9.022;2023-07-13T15:58:29;7.90;;;7.60;;
2622;SDS011;1321;48.690;9.022;2023-07-13T16:00:57;7.50;;;7.30;;
2622;SDS011;1321;48.690;9.022;2023-07-13T16:03:25;7.53;;;7.23;;
2622;SDS011;1321;48.690;9.022;2023-07-13T16:05:54;7.67;;;7.27;;
2622;SDS011;1321;48.690;9.022;2023-07-13T16:08:24;8.00;;;7.60;;
2622;SDS011;1321;48.690;9.022;2023-07-13T16:10:56;7.80;;;7.40;;
2622;SDS011;1321;48.690;9.022;2023-07-13T16:13:24;7.60;;;7.40;;